createdAt,value
2017-11-12T00:00:51.290Z,3.03
2017-11-12T00:01:51.892Z,3.07
2017-11-12T00:02:52.502Z,3.00
2017-11-12T00:03:53.140Z,3.04
2017-11-12T00:04:53.741Z,2.97
2017-11-12T00:05:54.344Z,2.79
2017-11-12T00:06:54.948Z,2.77
2017-11-12T00:07:55.557Z,2.79
2017-11-12T00:08:56.162Z,2.65
2017-11-12T00:09:56.766Z,2.72
2017-11-12T00:10:57.372Z,2.79
2017-11-12T00:11:57.978Z,2.79
2017-11-12T00:12:58.587Z,2.87
2017-11-12T00:13:59.188Z,2.77
2017-11-12T00:14:59.823Z,2.74
2017-11-12T00:16:00.430Z,2.74
2017-11-12T00:17:01.034Z,2.77
2017-11-12T00:18:01.639Z,2.80
2017-11-12T00:19:02.243Z,2.71
2017-11-12T00:20:02.849Z,2.80
2017-11-12T00:21:03.457Z,2.77
2017-11-12T00:22:04.063Z,2.79
2017-11-12T00:23:04.676Z,2.72
2017-11-12T00:24:05.277Z,2.75
2017-11-12T00:25:05.878Z,2.89
2017-11-12T00:26:06.491Z,2.80
2017-11-12T00:27:07.125Z,2.92
2017-11-12T00:28:07.731Z,2.98
2017-11-12T00:29:08.335Z,3.00
2017-11-12T00:30:08.939Z,2.98
2017-11-12T00:31:09.545Z,3.04
2017-11-12T00:32:10.155Z,3.14
2017-11-12T00:33:10.757Z,3.21
2017-11-12T00:34:11.361Z,3.18
2017-11-12T00:35:11.966Z,3.14
2017-11-12T00:36:12.568Z,3.19
2017-11-12T00:37:13.174Z,3.21
2017-11-12T00:38:13.779Z,3.14
2017-11-12T00:39:14.390Z,3.19
2017-11-12T00:40:14.993Z,3.18
2017-11-12T00:41:15.598Z,3.25
2017-11-12T00:42:16.209Z,3.18
2017-11-12T00:43:16.812Z,3.13
2017-11-12T00:44:17.418Z,3.21
2017-11-12T00:45:18.023Z,3.25
2017-11-12T00:46:18.626Z,3.31
2017-11-12T00:47:19.261Z,3.25
2017-11-12T00:48:19.866Z,3.16
2017-11-12T00:49:20.469Z,3.18
2017-11-12T00:50:21.079Z,3.19
2017-11-12T00:51:21.686Z,3.18
2017-11-12T00:52:22.292Z,3.18
2017-11-12T00:53:22.902Z,3.18
2017-11-12T00:54:23.541Z,3.14
2017-11-12T00:55:24.148Z,3.16
2017-11-12T00:56:24.752Z,3.16
2017-11-12T00:57:25.389Z,3.10
2017-11-12T00:58:25.994Z,3.19
2017-11-12T00:59:26.628Z,3.13
2017-11-12T01:00:27.233Z,3.31
2017-11-12T01:01:27.875Z,3.32
2017-11-12T01:02:28.485Z,3.37
2017-11-12T01:03:29.090Z,3.41
2017-11-12T01:04:29.709Z,3.53
2017-11-12T01:05:30.306Z,3.45
2017-11-12T01:06:30.911Z,3.53
2017-11-12T01:07:31.516Z,3.56
2017-11-12T01:08:32.120Z,3.53
2017-11-12T01:09:32.759Z,3.59
2017-11-12T01:10:33.367Z,3.51
2017-11-12T01:11:33.971Z,3.56
2017-11-12T01:12:34.578Z,3.48
2017-11-12T01:13:35.181Z,3.47
2017-11-12T01:14:35.788Z,3.51
2017-11-12T01:15:36.398Z,3.53
2017-11-12T01:16:37.006Z,3.47
2017-11-12T01:17:37.644Z,3.51
2017-11-12T01:18:38.253Z,3.51
2017-11-12T01:19:38.887Z,3.50
2017-11-12T01:20:39.493Z,3.45
2017-11-12T01:21:40.114Z,3.41
2017-11-12T01:22:40.747Z,3.44
2017-11-12T01:23:41.381Z,3.42
2017-11-12T01:24:41.986Z,3.32
2017-11-12T01:25:42.590Z,3.37
2017-11-12T01:26:43.199Z,3.37
2017-11-12T01:27:43.803Z,3.32
2017-11-12T01:28:44.417Z,3.41
2017-11-12T01:29:45.013Z,3.42
2017-11-12T01:30:45.618Z,3.34
2017-11-12T01:31:46.222Z,3.44
2017-11-12T01:32:46.827Z,3.45
2017-11-12T01:33:47.436Z,3.48
2017-11-12T01:34:48.045Z,3.44
2017-11-12T01:35:48.648Z,3.44
2017-11-12T01:36:49.292Z,3.40
2017-11-12T01:37:49.891Z,3.41
2017-11-12T01:38:50.528Z,3.34
2017-11-12T01:39:51.136Z,3.23
2017-11-12T01:40:51.742Z,3.22
2017-11-12T01:41:52.352Z,3.19
2017-11-12T01:42:52.952Z,3.16
2017-11-12T01:43:53.563Z,3.11
2017-11-12T01:44:54.167Z,3.11
2017-11-12T01:45:54.770Z,3.10
2017-11-12T01:46:55.380Z,3.11
2017-11-12T01:47:55.981Z,3.11
2017-11-12T01:48:56.591Z,3.03
2017-11-12T01:49:57.195Z,3.13
2017-11-12T01:50:57.801Z,3.00
2017-11-12T01:51:58.442Z,3.08
2017-11-12T01:52:59.045Z,3.08
2017-11-12T01:53:59.650Z,3.08
2017-11-12T01:55:00.254Z,3.18
2017-11-12T01:56:00.868Z,3.16
2017-11-12T01:57:01.494Z,3.16
2017-11-12T01:58:02.107Z,3.26
2017-11-12T01:59:02.714Z,3.34
2017-11-12T02:00:03.318Z,3.31
2017-11-12T02:01:03.923Z,3.34
2017-11-12T02:02:04.560Z,3.26
2017-11-12T02:03:05.167Z,3.28
2017-11-12T02:04:05.772Z,3.37
2017-11-12T02:05:06.373Z,3.25
2017-11-12T02:06:06.977Z,3.25
2017-11-12T02:07:07.591Z,3.25
2017-11-12T02:08:08.222Z,3.28
2017-11-12T02:09:08.827Z,3.28
2017-11-12T02:10:09.432Z,3.34
2017-11-12T02:11:10.037Z,3.36
2017-11-12T02:12:10.641Z,3.26
2017-11-12T02:13:11.258Z,3.36
2017-11-12T02:14:11.865Z,3.23
2017-11-12T02:15:12.466Z,3.26
2017-11-12T02:16:13.076Z,3.25
2017-11-12T02:17:13.679Z,3.23
2017-11-12T02:18:14.283Z,3.25
2017-11-12T02:19:14.916Z,3.18
2017-11-12T02:20:15.560Z,3.26
2017-11-12T02:21:16.157Z,3.25
2017-11-12T02:22:16.768Z,3.28
2017-11-12T02:23:17.369Z,3.25
2017-11-12T02:24:17.976Z,3.41
2017-11-12T02:25:18.580Z,3.40
2017-11-12T02:26:19.186Z,3.42
2017-11-12T02:27:19.793Z,3.42
2017-11-12T02:28:20.399Z,3.47
2017-11-12T02:29:21.004Z,3.48
2017-11-12T02:30:21.609Z,3.45
2017-11-12T02:31:22.219Z,3.48
2017-11-12T02:32:22.857Z,3.48
2017-11-12T02:33:23.466Z,3.51
2017-11-12T02:34:24.070Z,3.56
2017-11-12T02:35:24.679Z,3.53
2017-11-12T02:36:25.281Z,3.50
2017-11-12T02:37:25.887Z,3.59
2017-11-12T02:38:26.491Z,3.58
2017-11-12T02:39:27.096Z,3.63
2017-11-12T02:40:27.698Z,3.66
2017-11-12T02:41:28.307Z,3.70
2017-11-12T02:42:28.910Z,3.70
2017-11-12T02:43:29.513Z,3.76
2017-11-12T02:44:30.125Z,3.69
2017-11-12T02:45:30.736Z,3.83
2017-11-12T02:46:31.335Z,3.74
2017-11-12T02:47:31.962Z,3.83
2017-11-12T02:48:32.543Z,3.69
2017-11-12T02:49:33.149Z,3.73
2017-11-12T02:50:33.756Z,3.68
2017-11-12T02:51:34.358Z,3.63
2017-11-12T02:52:34.962Z,3.60
2017-11-12T02:53:35.567Z,3.63
2017-11-12T02:54:36.171Z,3.56
2017-11-12T02:55:36.774Z,3.56
2017-11-12T02:56:37.378Z,3.62
2017-11-12T02:57:37.983Z,3.59
2017-11-12T02:58:38.596Z,3.56
2017-11-12T02:59:39.199Z,3.65
2017-11-12T03:00:39.814Z,3.63
2017-11-12T03:01:40.410Z,3.65
2017-11-12T03:02:41.014Z,3.62
2017-11-12T03:03:41.626Z,3.63
2017-11-12T03:04:42.225Z,3.62
2017-11-12T03:05:42.829Z,3.65
2017-11-12T03:06:43.433Z,3.62
2017-11-12T03:07:44.042Z,3.63
2017-11-12T03:08:44.650Z,3.47
2017-11-12T03:09:45.256Z,3.56
2017-11-12T03:10:45.860Z,3.51
2017-11-12T03:11:46.466Z,3.53
2017-11-12T03:12:47.073Z,3.51
2017-11-12T03:13:47.683Z,3.32
2017-11-12T03:14:48.285Z,3.42
2017-11-12T03:15:48.921Z,3.41
2017-11-12T03:16:49.532Z,3.19
2017-11-12T03:17:50.140Z,3.23
2017-11-12T03:18:50.774Z,3.34
2017-11-12T03:19:51.378Z,3.23
2017-11-12T03:20:51.989Z,3.28
2017-11-12T03:21:52.596Z,3.34
2017-11-12T03:22:53.199Z,3.31
2017-11-12T03:23:53.804Z,3.31
2017-11-12T03:24:54.412Z,3.28
2017-11-12T03:25:55.017Z,3.36
2017-11-12T03:26:55.624Z,3.41
2017-11-12T03:27:56.230Z,3.40
2017-11-12T03:28:56.835Z,3.44
2017-11-12T03:29:57.440Z,3.51
2017-11-12T03:30:58.050Z,3.56
2017-11-12T03:31:58.684Z,3.58
2017-11-12T03:32:59.289Z,3.58
2017-11-12T03:33:59.895Z,3.68
2017-11-12T03:35:00.500Z,3.59
2017-11-12T03:36:01.111Z,3.68
2017-11-12T03:37:01.712Z,3.66
2017-11-12T03:38:02.317Z,3.66
2017-11-12T03:39:02.920Z,3.65
2017-11-12T03:40:03.533Z,3.60
2017-11-12T03:41:04.137Z,3.65
2017-11-12T03:42:04.741Z,3.65
2017-11-12T03:43:05.352Z,3.62
2017-11-12T03:44:05.956Z,3.63
2017-11-12T03:45:06.566Z,3.69
2017-11-12T03:46:07.164Z,3.66
2017-11-12T03:47:07.778Z,3.69
2017-11-12T03:48:08.417Z,3.69
2017-11-12T03:49:09.024Z,3.74
2017-11-12T03:50:09.625Z,3.76
2017-11-12T03:51:10.231Z,3.68
2017-11-12T03:52:10.835Z,3.73
2017-11-12T03:53:11.445Z,3.68
2017-11-12T03:54:12.058Z,3.60
2017-11-12T03:55:12.661Z,3.60
2017-11-12T03:56:13.265Z,3.73
2017-11-12T03:57:13.871Z,3.62
2017-11-12T03:58:14.477Z,3.56
2017-11-12T03:59:15.082Z,3.59
2017-11-12T04:00:15.685Z,3.58
2017-11-12T04:01:16.291Z,3.55
2017-11-12T04:02:16.895Z,3.56
2017-11-12T04:03:17.532Z,3.63
2017-11-12T04:04:18.136Z,3.55
2017-11-12T04:05:18.740Z,3.56
2017-11-12T04:06:19.344Z,3.51
2017-11-12T04:07:19.949Z,3.47
2017-11-12T04:08:20.552Z,3.60
2017-11-12T04:09:21.160Z,3.58
2017-11-12T04:10:21.764Z,3.53
2017-11-12T04:11:22.376Z,3.48
2017-11-12T04:12:22.978Z,3.53
2017-11-12T04:13:23.582Z,3.48
2017-11-12T04:14:24.187Z,3.44
2017-11-12T04:15:24.793Z,3.48
2017-11-12T04:16:25.399Z,3.44
2017-11-12T04:17:26.002Z,3.55
2017-11-12T04:18:26.612Z,3.50
2017-11-12T04:19:27.221Z,3.51
2017-11-12T04:20:27.827Z,3.59
2017-11-12T04:21:28.431Z,3.60
2017-11-12T04:22:29.073Z,3.59
2017-11-12T04:23:29.677Z,3.63
2017-11-12T04:24:30.283Z,3.66
2017-11-12T04:25:30.890Z,3.63
2017-11-12T04:26:31.496Z,3.58
2017-11-12T04:27:32.133Z,3.62
2017-11-12T04:28:32.770Z,3.58
2017-11-12T04:29:33.377Z,3.66
2017-11-12T04:30:33.983Z,3.62
2017-11-12T04:31:34.588Z,3.65
2017-11-12T04:32:35.225Z,3.74
2017-11-12T04:33:35.841Z,3.60
2017-11-12T04:34:36.477Z,3.65
2017-11-12T04:35:37.082Z,3.63
2017-11-12T04:36:37.695Z,3.69
2017-11-12T04:37:38.322Z,3.70
2017-11-12T04:38:38.928Z,3.65
2017-11-12T04:39:39.535Z,3.58
2017-11-12T04:40:40.140Z,3.63
2017-11-12T04:41:40.744Z,3.62
2017-11-12T04:42:41.356Z,3.47
2017-11-12T04:43:41.959Z,3.59
2017-11-12T04:44:42.562Z,3.58
2017-11-12T04:45:43.166Z,3.51
2017-11-12T04:46:43.800Z,3.58
2017-11-12T04:47:44.406Z,3.62
2017-11-12T04:48:45.011Z,3.63
2017-11-12T04:49:45.619Z,3.60
2017-11-12T04:50:46.226Z,3.65
2017-11-12T04:51:46.826Z,3.60
2017-11-12T04:52:47.431Z,3.63
2017-11-12T04:53:48.042Z,3.65
2017-11-12T04:54:48.645Z,3.62
2017-11-12T04:55:49.291Z,3.58
2017-11-12T04:56:49.926Z,3.62
2017-11-12T04:57:50.532Z,3.58
2017-11-12T04:58:51.140Z,3.51
2017-11-12T04:59:51.747Z,3.59
2017-11-12T05:00:52.357Z,3.56
2017-11-12T05:01:52.963Z,3.47
2017-11-12T05:02:53.566Z,3.47
2017-11-12T05:03:54.206Z,3.53
2017-11-12T05:04:54.808Z,3.50
2017-11-12T05:05:55.413Z,3.31
2017-11-12T05:06:56.018Z,3.45
2017-11-12T05:07:56.629Z,3.44
2017-11-12T05:08:57.235Z,3.41
2017-11-12T05:09:57.838Z,3.40
2017-11-12T05:10:58.444Z,3.32
2017-11-12T05:11:59.050Z,3.26
2017-11-12T05:12:59.662Z,3.31
2017-11-12T05:14:00.266Z,3.26
2017-11-12T05:15:00.870Z,3.28
2017-11-12T05:16:01.476Z,3.13
2017-11-12T05:17:02.105Z,3.26
2017-11-12T05:18:02.688Z,3.16
2017-11-12T05:19:03.322Z,3.18
2017-11-12T05:20:03.933Z,3.11
2017-11-12T05:21:04.536Z,3.10
2017-11-12T05:22:05.174Z,2.97
2017-11-12T05:23:05.778Z,3.01
2017-11-12T05:24:06.382Z,2.97
2017-11-12T05:25:06.996Z,2.98
2017-11-12T05:26:07.593Z,3.05
2017-11-12T05:27:08.202Z,3.00
2017-11-12T05:28:08.804Z,3.01
2017-11-12T05:29:09.427Z,2.97
2017-11-12T05:30:10.033Z,2.97
2017-11-12T05:31:10.637Z,3.07
2017-11-12T05:32:11.243Z,3.08
2017-11-12T05:33:11.847Z,3.07
2017-11-12T05:34:12.458Z,2.98
2017-11-12T05:35:13.098Z,3.08
2017-11-12T05:36:13.704Z,3.11
2017-11-12T05:37:14.312Z,3.11
2017-11-12T05:38:14.917Z,3.11
2017-11-12T05:39:15.533Z,3.19
2017-11-12T05:40:16.135Z,3.18
2017-11-12T05:41:16.737Z,3.14
2017-11-12T05:42:17.381Z,3.14
2017-11-12T05:43:17.986Z,3.16
2017-11-12T05:44:18.592Z,3.19
2017-11-12T05:45:19.202Z,3.21
2017-11-12T05:46:19.802Z,3.11
2017-11-12T05:47:20.408Z,3.19
2017-11-12T05:48:21.014Z,3.16
2017-11-12T05:49:21.617Z,3.14
2017-11-12T05:50:22.266Z,3.19
2017-11-12T05:51:22.860Z,3.21
2017-11-12T05:52:23.463Z,3.21
2017-11-12T05:53:24.071Z,3.13
2017-11-12T05:54:24.683Z,3.08
2017-11-12T05:55:25.290Z,3.04
2017-11-12T05:56:25.896Z,3.08
2017-11-12T05:57:26.505Z,3.10
2017-11-12T05:58:27.140Z,3.13
2017-11-12T05:59:27.746Z,2.97
2017-11-12T06:00:28.352Z,3.04
2017-11-12T06:01:28.959Z,3.08
2017-11-12T06:02:29.566Z,3.10
2017-11-12T06:03:30.167Z,3.18
2017-11-12T06:04:30.770Z,3.19
2017-11-12T06:05:31.407Z,3.18
2017-11-12T06:06:32.046Z,3.22
2017-11-12T06:07:32.655Z,3.18
2017-11-12T06:08:33.260Z,3.14
2017-11-12T06:09:33.863Z,3.22
2017-11-12T06:10:34.471Z,3.16
2017-11-12T06:11:35.073Z,3.11
2017-11-12T06:12:35.680Z,3.07
2017-11-12T06:13:36.291Z,3.07
2017-11-12T06:14:36.926Z,3.08
2017-11-12T06:15:37.535Z,3.04
2017-11-12T06:16:38.143Z,3.00
2017-11-12T06:17:38.780Z,3.03
2017-11-12T06:18:39.389Z,3.10
2017-11-12T06:19:39.994Z,3.11
2017-11-12T06:20:40.602Z,3.13
2017-11-12T06:21:41.210Z,3.13
2017-11-12T06:22:41.812Z,3.25
2017-11-12T06:23:42.414Z,3.25
2017-11-12T06:24:43.019Z,3.29
2017-11-12T06:25:43.627Z,3.36
2017-11-12T06:26:44.235Z,3.40
2017-11-12T06:27:44.835Z,3.36
2017-11-12T06:28:45.447Z,3.41
2017-11-12T06:29:46.056Z,3.42
2017-11-12T06:30:46.658Z,3.40
2017-11-12T06:31:47.262Z,3.44
2017-11-12T06:32:47.867Z,3.42
2017-11-12T06:33:48.473Z,3.56
2017-11-12T06:34:49.078Z,3.42
2017-11-12T06:35:49.688Z,3.44
2017-11-12T06:36:50.291Z,3.41
2017-11-12T06:37:50.900Z,3.42
2017-11-12T06:38:51.514Z,3.34
2017-11-12T06:39:52.151Z,3.32
2017-11-12T06:40:52.788Z,3.22
2017-11-12T06:41:53.394Z,3.29
2017-11-12T06:42:54.001Z,3.36
2017-11-12T06:43:54.606Z,3.29
2017-11-12T06:44:55.214Z,3.26
2017-11-12T06:45:55.849Z,3.18
2017-11-12T06:46:56.459Z,3.14
2017-11-12T06:47:57.096Z,3.21
2017-11-12T06:48:57.702Z,3.14
2017-11-12T06:49:58.308Z,3.18
2017-11-12T06:50:58.921Z,3.18
2017-11-12T06:51:59.523Z,3.11
2017-11-12T06:53:00.130Z,3.14
2017-11-12T06:54:00.769Z,3.13
2017-11-12T06:55:01.405Z,3.16
2017-11-12T06:56:02.011Z,3.14
2017-11-12T06:57:02.618Z,3.16
2017-11-12T06:58:03.224Z,3.22
2017-11-12T06:59:03.830Z,3.18
2017-11-12T07:00:04.434Z,3.16
2017-11-12T07:01:05.058Z,3.21
2017-11-12T07:02:05.715Z,3.19
2017-11-12T07:03:06.319Z,3.16
2017-11-12T07:04:06.923Z,3.14
2017-11-12T07:05:07.532Z,3.21
2017-11-12T07:06:08.138Z,3.19
2017-11-12T07:07:08.744Z,3.19
2017-11-12T07:08:09.385Z,3.22
2017-11-12T07:09:10.025Z,3.11
2017-11-12T07:10:10.626Z,3.14
2017-11-12T07:11:11.237Z,3.23
2017-11-12T07:12:11.845Z,3.23
2017-11-12T07:13:12.450Z,3.14
2017-11-12T07:14:13.055Z,3.13
2017-11-12T07:15:13.670Z,3.23
2017-11-12T07:16:14.271Z,3.16
2017-11-12T07:17:14.875Z,3.13
2017-11-12T07:18:15.481Z,3.18
2017-11-12T07:19:16.092Z,3.08
2017-11-12T07:20:16.728Z,3.22
2017-11-12T07:21:17.338Z,3.18
2017-11-12T07:22:17.946Z,3.19
2017-11-12T07:23:18.553Z,3.18
2017-11-12T07:24:19.191Z,3.16
2017-11-12T07:25:19.803Z,3.18
2017-11-12T07:26:20.406Z,3.18
2017-11-12T07:27:21.014Z,3.31
2017-11-12T07:28:21.640Z,3.26
2017-11-12T07:29:22.231Z,3.32
2017-11-12T07:30:22.848Z,3.21
2017-11-12T07:31:23.459Z,3.29
2017-11-12T07:32:24.062Z,3.29
2017-11-12T07:33:24.670Z,3.40
2017-11-12T07:34:25.282Z,3.45
2017-11-12T07:35:25.917Z,3.40
2017-11-12T07:36:26.525Z,3.45
2017-11-12T07:37:27.131Z,3.42
2017-11-12T07:38:27.738Z,3.44
2017-11-12T07:39:28.350Z,3.55
2017-11-12T07:40:28.991Z,3.45
2017-11-12T07:41:29.597Z,3.48
2017-11-12T07:42:30.211Z,3.45
2017-11-12T07:43:30.810Z,3.40
2017-11-12T07:44:31.467Z,3.44
2017-11-12T07:45:32.079Z,3.32
2017-11-12T07:46:32.729Z,3.51
2017-11-12T07:47:33.337Z,3.48
2017-11-12T07:48:33.941Z,3.44
2017-11-12T07:49:34.547Z,3.47
2017-11-12T07:50:35.155Z,3.44
2017-11-12T07:51:35.766Z,3.42
2017-11-12T07:52:36.377Z,3.47
2017-11-12T07:53:36.977Z,3.48
2017-11-12T07:54:37.590Z,3.56
2017-11-12T07:55:38.227Z,3.53
2017-11-12T07:56:38.836Z,3.51
2017-11-12T07:57:39.448Z,3.48
2017-11-12T07:58:40.059Z,3.53
2017-11-12T07:59:40.696Z,3.50
2017-11-12T08:00:41.303Z,3.48
2017-11-12T08:01:41.914Z,3.48
2017-11-12T08:02:42.519Z,3.55
2017-11-12T08:03:43.134Z,3.53
2017-11-12T08:04:43.739Z,3.55
2017-11-12T08:05:44.383Z,3.55
2017-11-12T08:06:44.987Z,3.58
2017-11-12T08:07:45.596Z,3.59
2017-11-12T08:08:46.204Z,3.62
2017-11-12T08:09:46.811Z,3.62
2017-11-12T08:10:47.419Z,3.59
2017-11-12T08:11:48.029Z,3.59
2017-11-12T08:12:48.637Z,3.60
2017-11-12T08:13:49.250Z,3.68
2017-11-12T08:14:49.857Z,3.70
2017-11-12T08:15:50.464Z,3.73
2017-11-12T08:16:51.073Z,3.74
2017-11-12T08:17:51.682Z,3.76
2017-11-12T08:18:52.299Z,3.69
2017-11-12T08:19:52.900Z,3.68
2017-11-12T08:20:53.510Z,3.70
2017-11-12T08:21:54.117Z,3.83
2017-11-12T08:22:54.728Z,3.88
2017-11-12T08:23:55.341Z,3.84
2017-11-12T08:24:55.948Z,3.87
2017-11-12T08:25:56.561Z,3.84
2017-11-12T08:26:57.170Z,3.86
2017-11-12T08:27:57.776Z,3.84
2017-11-12T08:28:58.385Z,3.86
2017-11-12T08:29:58.997Z,3.86
2017-11-12T08:30:59.602Z,3.92
2017-11-12T08:32:00.209Z,3.96
2017-11-12T08:33:00.818Z,4.01
2017-11-12T08:34:01.624Z,4.04
2017-11-12T08:35:02.045Z,4.02
2017-11-12T08:36:02.650Z,4.02
2017-11-12T08:37:03.258Z,4.06
2017-11-12T08:38:03.902Z,4.08
2017-11-12T08:39:04.508Z,4.06
2017-11-12T08:40:05.124Z,4.12
2017-11-12T08:41:05.726Z,4.16
2017-11-12T08:42:06.365Z,4.14
2017-11-12T08:43:06.982Z,4.10
2017-11-12T08:44:07.587Z,4.17
2017-11-12T08:45:08.196Z,4.22
2017-11-12T08:46:08.805Z,4.19
2017-11-12T08:47:09.414Z,4.08
2017-11-12T08:48:10.023Z,4.16
2017-11-12T08:49:10.633Z,4.14
2017-11-12T08:50:11.242Z,4.14
2017-11-12T08:51:11.850Z,4.14
2017-11-12T08:52:12.460Z,4.10
2017-11-12T08:53:13.067Z,4.05
2017-11-12T08:54:13.677Z,4.01
2017-11-12T08:55:14.285Z,4.10
2017-11-12T08:56:14.901Z,4.01
2017-11-12T08:57:15.507Z,4.02
2017-11-12T08:58:16.118Z,4.01
2017-11-12T08:59:16.733Z,4.04
2017-11-12T09:00:17.337Z,4.13
2017-11-12T09:01:17.948Z,4.12
2017-11-12T09:02:18.557Z,4.12
2017-11-12T09:03:19.166Z,4.12
2017-11-12T09:04:19.775Z,4.22
2017-11-12T09:05:20.383Z,4.17
2017-11-12T09:06:20.993Z,4.23
2017-11-12T09:07:21.610Z,4.19
2017-11-12T09:08:22.213Z,4.24
2017-11-12T09:09:22.828Z,4.23
2017-11-12T09:10:23.433Z,4.31
2017-11-12T09:11:24.047Z,4.34
2017-11-12T09:12:24.687Z,4.26
2017-11-12T09:13:25.296Z,4.30
2017-11-12T09:14:25.906Z,4.34
2017-11-12T09:15:26.516Z,4.31
2017-11-12T09:16:27.128Z,4.37
2017-11-12T09:17:27.734Z,4.35
2017-11-12T09:18:28.343Z,4.35
2017-11-12T09:19:28.959Z,4.38
2017-11-12T09:20:29.559Z,4.45
2017-11-12T09:21:30.168Z,4.50
2017-11-12T09:22:30.808Z,4.58
2017-11-12T09:23:31.422Z,4.67
2017-11-12T09:24:32.030Z,4.68
2017-11-12T09:25:32.638Z,4.86
2017-11-12T09:26:33.247Z,4.84
2017-11-12T09:27:33.862Z,4.82
2017-11-12T09:28:34.473Z,4.75
2017-11-12T09:29:35.079Z,4.73
2017-11-12T09:30:35.689Z,4.75
2017-11-12T09:31:36.305Z,4.75
2017-11-12T09:32:36.910Z,4.87
2017-11-12T09:33:37.520Z,4.80
2017-11-12T09:34:38.130Z,4.92
2017-11-12T09:35:38.744Z,5.07
2017-11-12T09:36:39.357Z,5.11
2017-11-12T09:37:39.963Z,5.23
2017-11-12T09:38:40.574Z,5.32
2017-11-12T09:39:41.186Z,5.38
2017-11-12T09:40:41.791Z,5.50
2017-11-12T09:41:42.399Z,5.57
2017-11-12T09:42:43.015Z,5.68
2017-11-12T09:43:43.630Z,5.61
2017-11-12T09:44:44.242Z,5.80
2017-11-12T09:45:44.850Z,5.89
2017-11-12T09:46:45.459Z,6.16
2017-11-12T09:47:46.070Z,6.26
2017-11-12T09:48:46.683Z,6.45
2017-11-12T09:49:47.291Z,6.57
2017-11-12T09:50:47.901Z,6.72
2017-11-12T09:51:48.520Z,6.89
2017-11-12T09:52:49.160Z,6.97
2017-11-12T09:53:49.768Z,7.10
2017-11-12T09:54:50.380Z,7.11
2017-11-12T09:55:50.993Z,7.24
2017-11-12T09:56:51.605Z,7.42
2017-11-12T09:57:52.221Z,7.72
2017-11-12T09:58:52.831Z,7.85
2017-11-12T09:59:53.442Z,7.80
2017-11-12T10:00:54.090Z,7.93
2017-11-12T10:01:54.730Z,7.87
2017-11-12T10:02:55.342Z,7.83
2017-11-12T10:03:55.985Z,7.97
2017-11-12T10:04:56.597Z,8.01
2017-11-12T10:05:57.238Z,8.08
2017-11-12T10:06:57.851Z,8.24
2017-11-12T10:07:58.464Z,8.34
2017-11-12T10:08:59.082Z,8.26
2017-11-12T10:09:59.690Z,8.24
2017-11-12T10:11:00.304Z,8.10
2017-11-12T10:12:00.917Z,8.16
2017-11-12T10:13:01.529Z,8.24
2017-11-12T10:14:02.171Z,8.51
2017-11-12T10:15:02.815Z,8.66
2017-11-12T10:16:03.429Z,8.92
2017-11-12T10:17:04.046Z,9.14
2017-11-12T10:18:04.702Z,9.40
2017-11-12T10:19:05.301Z,9.44
2017-11-12T10:20:05.912Z,9.48
2017-11-12T10:21:06.524Z,9.59
2017-11-12T10:22:07.139Z,9.55
2017-11-12T10:23:07.756Z,9.74
2017-11-12T10:24:08.366Z,9.74
2017-11-12T10:25:08.982Z,9.86
2017-11-12T10:26:09.595Z,10.01
2017-11-12T10:27:10.210Z,10.09
2017-11-12T10:28:10.827Z,10.15
2017-11-12T10:29:11.442Z,10.16
2017-11-12T10:30:12.061Z,10.19
2017-11-12T10:31:12.714Z,10.12
2017-11-12T10:32:13.391Z,10.15
2017-11-12T10:33:14.001Z,10.01
2017-11-12T10:34:14.615Z,9.98
2017-11-12T10:35:15.230Z,10.09
2017-11-12T10:36:15.844Z,10.05
2017-11-12T10:37:16.470Z,10.17
2017-11-12T10:38:17.145Z,10.22
2017-11-12T10:39:17.740Z,10.22
2017-11-12T10:40:18.349Z,10.17
2017-11-12T10:41:18.963Z,10.17
2017-11-12T10:42:19.580Z,10.09
2017-11-12T10:43:20.195Z,9.77
2017-11-12T10:44:20.837Z,9.44
2017-11-12T10:45:21.451Z,9.37
2017-11-12T10:46:22.067Z,9.26
2017-11-12T10:47:22.687Z,9.29
2017-11-12T10:48:23.298Z,9.34
2017-11-12T10:49:23.913Z,9.29
2017-11-12T10:50:24.557Z,9.25
2017-11-12T10:51:25.171Z,9.21
2017-11-12T10:52:25.807Z,9.10
2017-11-12T10:53:26.395Z,8.88
2017-11-12T10:54:27.037Z,8.71
2017-11-12T10:55:27.650Z,8.48
2017-11-12T10:56:28.294Z,8.38
2017-11-12T10:57:28.911Z,8.38
2017-11-12T10:58:29.528Z,8.15
2017-11-12T10:59:30.132Z,8.00
2017-11-12T11:00:30.748Z,7.83
2017-11-12T11:01:31.359Z,7.70
2017-11-12T11:02:31.976Z,7.63
2017-11-12T11:03:32.591Z,7.45
2017-11-12T11:04:33.200Z,7.29
2017-11-12T11:05:33.825Z,7.07
2017-11-12T11:06:34.424Z,7.05
2017-11-12T11:07:35.040Z,7.06
2017-11-12T11:08:35.648Z,7.11
2017-11-12T11:09:36.262Z,7.11
2017-11-12T11:10:36.871Z,7.06
2017-11-12T11:11:37.514Z,7.06
2017-11-12T11:12:38.125Z,6.93
2017-11-12T11:13:38.737Z,6.93
2017-11-12T11:14:39.349Z,6.78
2017-11-12T11:15:39.962Z,6.75
2017-11-12T11:16:40.605Z,6.69
2017-11-12T11:17:41.248Z,6.64
2017-11-12T11:18:41.859Z,6.57
2017-11-12T11:19:42.476Z,6.51
2017-11-12T11:20:43.084Z,6.45
2017-11-12T11:21:43.703Z,6.48
2017-11-12T11:22:44.313Z,6.42
2017-11-12T11:23:44.926Z,6.42
2017-11-12T11:24:45.535Z,6.28
2017-11-12T11:25:46.148Z,6.35
2017-11-12T11:26:46.809Z,6.46
2017-11-12T11:27:47.448Z,6.41
2017-11-12T11:28:48.089Z,6.62
2017-11-12T11:29:48.700Z,6.89
2017-11-12T11:30:49.320Z,7.10
2017-11-12T11:31:49.976Z,7.47
2017-11-12T11:32:50.589Z,7.66
2017-11-12T11:33:51.199Z,7.79
2017-11-12T11:34:51.816Z,7.79
2017-11-12T11:35:52.459Z,7.91
2017-11-12T11:36:53.068Z,7.85
2017-11-12T11:37:53.685Z,7.73
2017-11-12T11:38:54.294Z,7.58
2017-11-12T11:39:54.908Z,7.45
2017-11-12T11:40:55.524Z,7.36
2017-11-12T11:41:56.173Z,7.24
2017-11-12T11:42:56.808Z,7.15
2017-11-12T11:43:57.464Z,7.23
2017-11-12T11:44:58.073Z,7.28
2017-11-12T11:45:58.677Z,7.43
2017-11-12T11:46:59.290Z,7.58
2017-11-12T11:47:59.908Z,7.88
2017-11-12T11:49:00.519Z,8.03
2017-11-12T11:50:01.134Z,8.23
2017-11-12T11:51:01.745Z,8.51
2017-11-12T11:52:02.390Z,8.69
2017-11-12T11:53:03.039Z,8.91
2017-11-12T11:54:03.655Z,9.06
2017-11-12T11:55:04.266Z,9.08
2017-11-12T11:56:04.910Z,9.04
2017-11-12T11:57:05.523Z,9.11
2017-11-12T11:58:06.133Z,9.22
2017-11-12T11:59:06.749Z,9.25
2017-11-12T12:00:07.363Z,9.16
2017-11-12T12:01:07.975Z,9.16
2017-11-12T12:02:08.594Z,9.04
2017-11-12T12:03:09.202Z,8.99
2017-11-12T12:04:09.816Z,9.19
2017-11-12T12:05:10.430Z,8.99
2017-11-12T12:06:11.042Z,8.84
2017-11-12T12:07:11.692Z,8.64
2017-11-12T12:08:12.303Z,8.52
2017-11-12T12:09:12.912Z,8.34
2017-11-12T12:10:13.527Z,8.01
2017-11-12T12:11:14.143Z,7.87
2017-11-12T12:12:14.834Z,7.57
2017-11-12T12:13:15.447Z,7.23
2017-11-12T12:14:16.063Z,7.07
2017-11-12T12:15:16.677Z,6.81
2017-11-12T12:16:17.326Z,6.54
2017-11-12T12:17:17.934Z,6.48
2017-11-12T12:18:18.548Z,6.39
2017-11-12T12:19:19.160Z,6.27
2017-11-12T12:20:19.773Z,6.22
2017-11-12T12:21:20.380Z,6.07
2017-11-12T12:22:20.996Z,6.04
2017-11-12T12:23:21.604Z,5.91
2017-11-12T12:24:22.249Z,5.90
2017-11-12T12:25:22.896Z,5.90
2017-11-12T12:26:23.503Z,5.97
2017-11-12T12:27:24.145Z,5.98
2017-11-12T12:28:24.756Z,6.01
2017-11-12T12:29:25.396Z,6.19
2017-11-12T12:30:26.013Z,6.24
2017-11-12T12:31:26.622Z,6.07
2017-11-12T12:32:27.229Z,5.99
2017-11-12T12:33:27.845Z,5.94
2017-11-12T12:34:28.449Z,5.97
2017-11-12T12:35:29.084Z,5.87
2017-11-12T12:36:29.703Z,5.94
2017-11-12T12:37:30.365Z,5.75
2017-11-12T12:38:30.975Z,5.80
2017-11-12T12:39:31.588Z,5.75
2017-11-12T12:40:32.196Z,5.68
2017-11-12T12:41:32.836Z,5.66
2017-11-12T12:42:33.448Z,5.73
2017-11-12T12:43:34.060Z,5.68
2017-11-12T12:44:34.666Z,5.73
2017-11-12T12:45:35.275Z,5.66
2017-11-12T12:46:35.887Z,5.72
2017-11-12T12:47:36.506Z,5.65
2017-11-12T12:48:37.113Z,5.71
2017-11-12T12:49:37.723Z,5.65
2017-11-12T12:50:38.334Z,5.59
2017-11-12T12:51:38.949Z,5.71
2017-11-12T12:52:39.564Z,5.82
2017-11-12T12:53:40.172Z,5.84
2017-11-12T12:54:40.783Z,5.84
2017-11-12T12:55:41.398Z,5.80
2017-11-12T12:56:42.005Z,5.75
2017-11-12T12:57:42.615Z,5.87
2017-11-12T12:58:43.228Z,5.75
2017-11-12T12:59:43.837Z,5.72
2017-11-12T13:00:44.445Z,5.66
2017-11-12T13:01:45.054Z,5.64
2017-11-12T13:02:45.663Z,5.59
2017-11-12T13:03:46.272Z,5.64
2017-11-12T13:04:46.879Z,5.53
2017-11-12T13:05:47.517Z,5.53
2017-11-12T13:06:48.126Z,5.51
2017-11-12T13:07:48.735Z,5.38
2017-11-12T13:08:49.341Z,5.32
2017-11-12T13:09:49.958Z,5.29
2017-11-12T13:10:50.559Z,5.18
2017-11-12T13:11:51.168Z,5.11
2017-11-12T13:12:51.785Z,5.14
2017-11-12T13:13:52.384Z,5.23
2017-11-12T13:14:52.993Z,5.12
2017-11-12T13:15:53.601Z,5.15
2017-11-12T13:16:54.213Z,5.12
2017-11-12T13:17:54.856Z,5.21
2017-11-12T13:18:55.493Z,5.17
2017-11-12T13:19:56.102Z,5.20
2017-11-12T13:20:56.710Z,5.12
2017-11-12T13:21:57.328Z,5.07
2017-11-12T13:22:57.962Z,4.96
2017-11-12T13:23:58.570Z,4.96
2017-11-12T13:24:59.176Z,4.97
2017-11-12T13:25:59.784Z,4.94